Time;durP1;ratioP1;P1;durP2;ratioP2;P2;SDS_P1;SDS_P2;PMS_P1;PMS_P2;Temp;Humidity;BMP_temperature;BMP_pressure;BME280_temperature;BME280_humidity;BME280_pressure;Samples;Min_cycle;Max_cycle;Signal;HPM_P1;HPM_P2
2023/11/19 00:01:11;;;;;;;7.90;6.20;;;;;;;2.10;100.00;97416.41;110232;1247;71509;-68
2023/11/19 00:04:01;;;;;;;7.80;6.40;;;;;;;2.09;100.00;97421.09;110166;1243;69157;-68
2023/11/19 00:06:31;;;;;;;;;;;;;;;2.08;100.00;97421.79;110166;1240;67717;-68
2023/11/19 00:09:00;;;;;;;8.30;6.20;;;;;;;2.05;100.00;97422.59;110248;1242;59741;-68
2023/11/19 00:11:30;;;;;;;7.40;5.70;;;;;;;2.04;100.00;97420.40;110255;1243;59684;-68
2023/11/19 00:14:00;;;;;;;6.80;5.90;;;;;;;2.03;100.00;97420.08;110175;1243;72301;-68
2023/11/19 00:16:32;;;;;;;7.80;6.50;;;;;;;2.03;100.00;97418.02;110187;1247;69087;-68
2023/11/19 00:19:04;;;;;;;7.60;6.00;;;;;;;2.02;100.00;97415.65;110187;1241;69357;-68
2023/11/19 00:21:33;;;;;;;6.00;5.10;;;;;;;2.01;100.00;97421.38;110196;1242;60114;-68
2023/11/19 00:24:04;;;;;;;7.20;5.20;;;;;;;1.99;100.00;97428.32;110166;1242;59807;-68
2023/11/19 00:26:35;;;;;;;6.70;5.00;;;;;;;1.97;100.00;97429.77;110160;1242;71411;-68
2023/11/19 00:29:06;;;;;;;6.60;5.00;;;;;;;1.95;100.00;97427.45;110182;1243;68291;-68
2023/11/19 00:31:36;;;;;;;7.40;6.00;;;;;;;1.93;100.00;97426.32;110243;1243;69298;-68
2023/11/19 00:34:07;;;;;;;5.50;4.60;;;;;;;1.91;100.00;97426.76;110108;1240;59754;-68
2023/11/19 00:36:38;;;;;;;7.40;5.50;;;;;;;1.88;100.00;97423.05;110106;1244;59653;-68
2023/11/19 00:39:07;;;;;;;6.50;4.70;;;;;;;1.87;100.00;97417.63;110228;1242;71413;-68
2023/11/19 00:41:37;;;;;;;6.60;4.80;;;;;;;1.84;100.00;97422.02;110264;1242;68309;-68
2023/11/19 00:44:07;;;;;;;5.50;4.70;;;;;;;1.82;100.00;97425.20;110206;1242;69293;-68
2023/11/19 00:46:39;;;;;;;6.60;5.60;;;;;;;1.82;100.00;97423.31;110091;1244;59677;-68
2023/11/19 00:49:11;;;;;;;7.60;5.50;;;;;;;1.81;100.00;97421.10;110222;1242;59690;-68
2023/11/19 00:51:41;;;;;;;7.40;4.80;;;;;;;1.78;100.00;97420.00;110232;1240;70609;-68
2023/11/19 00:54:12;;;;;;;6.00;4.40;;;;;;;1.75;100.00;97421.68;110242;1240;68389;-68
2023/11/19 00:56:42;;;;;;;6.90;5.10;;;;;;;1.72;100.00;97426.95;110089;1244;69966;-68
2023/11/19 00:59:13;;;;;;;6.40;4.90;;;;;;;1.71;100.00;97424.91;110211;1240;59663;-68
2023/11/19 01:01:44;;;;;;;6.30;4.90;;;;;;;1.69;100.00;97422.59;110107;1245;59708;-68
2023/11/19 01:04:15;;;;;;;6.10;5.00;;;;;;;1.66;100.00;97422.86;110230;1242;70616;-68
2023/11/19 01:06:46;;;;;;;6.40;5.40;;;;;;;1.65;100.00;97420.16;110215;1240;68726;-67
2023/11/19 01:09:18;;;;;;;6.10;5.40;;;;;;;1.63;100.00;97416.45;110167;1244;69327;-68
2023/11/19 01:11:50;;;;;;;6.80;4.70;;;;;;;1.60;100.00;97418.11;110179;1241;59742;-67
2023/11/19 01:14:22;;;;;;;6.80;4.90;;;;;;;1.57;100.00;97417.00;110111;1245;59724;-68
2023/11/19 01:16:55;;;;;;;8.20;5.10;;;;;;;1.56;100.00;97421.85;110097;1241;71341;-68
2023/11/19 01:19:28;;;;;;;7.00;4.40;;;;;;;1.56;100.00;97425.30;110198;1241;68468;-68
2023/11/19 01:21:59;;;;;;;7.60;5.90;;;;;;;1.52;100.00;97425.06;110101;1244;68499;-68
2023/11/19 01:24:31;;;;;;;6.40;4.70;;;;;;;1.51;100.00;97423.23;110212;1241;59654;-68
2023/11/19 01:27:02;;;;;;;6.60;4.80;;;;;;;1.49;100.00;97424.00;110217;1242;59678;-68
2023/11/19 01:29:33;;;;;;;6.50;4.70;;;;;;;1.47;100.00;97424.42;110199;1245;71464;-67
2023/11/19 01:32:04;;;;;;;8.10;4.60;;;;;;;1.43;100.00;97421.30;110240;1242;69119;-67
2023/11/19 01:34:36;;;;;;;6.40;4.50;;;;;;;1.41;100.00;97418.11;110223;1244;69299;-68
2023/11/19 01:37:12;;;;;;;7.10;4.50;;;;;;;1.38;100.00;97412.91;110126;1241;59758;-68
2023/11/19 01:39:45;;;;;;;6.40;4.20;;;;;;;1.33;100.00;97415.66;110111;1247;59742;-67
2023/11/19 01:42:29;;;;;;;5.00;3.60;;;;;;;1.28;100.00;97413.41;110168;1241;70369;-68
2023/11/19 01:45:02;;;;;;;6.70;4.70;;;;;;;1.24;100.00;97415.98;110260;1242;69400;-67
2023/11/19 01:47:37;;;;;;;6.20;4.30;;;;;;;1.20;100.00;97416.62;110199;1242;68752;-68
2023/11/19 01:50:09;;;;;;;5.20;4.10;;;;;;;1.16;100.00;97418.83;110262;1242;59734;-68
2023/11/19 01:52:41;;;;;;;5.20;3.90;;;;;;;1.11;100.00;97416.96;110228;1242;60107;-67
2023/11/19 01:55:14;;;;;;;5.40;4.60;;;;;;;1.04;100.00;97417.19;110221;1242;71392;-67
2023/11/19 01:57:47;;;;;;;5.30;4.50;;;;;;;0.97;100.00;97413.81;110139;1251;69352;-67
2023/11/19 02:00:19;;;;;;;6.90;5.40;;;;;;;0.91;100.00;97413.84;110149;1244;68354;-68
2023/11/19 02:02:52;;;;;;;6.90;4.80;;;;;;;0.85;100.00;97413.90;110136;1248;59690;-68
2023/11/19 02:05:23;;;;;;;6.40;4.80;;;;;;;0.79;100.00;97414.96;110234;1242;59768;-68
2023/11/19 02:07:55;;;;;;;6.10;5.40;;;;;;;0.73;100.00;97417.23;110238;1240;71415;-67
2023/11/19 02:10:27;;;;;;;6.40;4.90;;;;;;;0.66;100.00;97419.70;110266;1244;69128;-67
2023/11/19 02:13:02;;;;;;;5.60;4.60;;;;;;;0.59;100.00;97419.75;110197;1243;69207;-67
2023/11/19 02:15:36;;;;;;;6.10;4.70;;;;;;;0.51;100.00;97419.30;110075;1245;59734;-68
2023/11/19 02:18:24;;;;;;;5.70;4.00;;;;;;;0.44;100.00;97424.86;110242;1242;59715;-67
2023/11/19 02:20:58;;;;;;;5.00;3.80;;;;;;;0.34;100.00;97422.26;110119;1244;71281;-67
2023/11/19 02:23:31;;;;;;;5.90;3.70;;;;;;;0.25;100.00;97424.23;110112;1242;68497;-67
2023/11/19 02:26:08;;;;;;;5.30;4.40;;;;;;;0.20;100.00;97424.92;110155;1243;69171;-67
2023/11/19 02:28:41;;;;;;;5.90;4.10;;;;;;;0.14;100.00;97432.31;110233;1241;59704;-67
2023/11/19 02:31:14;;;;;;;8.00;5.80;;;;;;;0.06;100.00;97432.55;110268;1242;59744;-67
2023/11/19 02:33:45;;;;;;;6.40;5.00;;;;;;;-0.03;100.00;97438.46;110218;1242;70578;-67
2023/11/19 02:36:17;;;;;;;8.50;6.30;;;;;;;-0.06;100.00;97442.52;110130;1245;68686;-67
2023/11/19 02:38:49;;;;;;;6.20;5.00;;;;;;;-0.11;100.00;97443.88;110206;1242;68561;-67
2023/11/19 02:41:20;;;;;;;6.40;5.20;;;;;;;-0.17;100.00;97445.06;110231;1241;59678;-68
2023/11/19 02:43:53;;;;;;;10.10;6.80;;;;;;;-0.22;100.00;97455.14;110152;1241;59664;-67
2023/11/19 02:46:24;;;;;;;9.10;6.10;;;;;;;-0.25;100.00;97457.44;110217;1244;70638;-67
2023/11/19 02:48:58;;;;;;;8.90;6.20;;;;;;;-0.27;100.00;97454.44;110112;1241;68307;-68
2023/11/19 02:51:30;;;;;;;7.30;4.60;;;;;;;-0.31;100.00;97452.69;110236;1242;69190;-67
2023/11/19 02:54:03;;;;;;;5.80;4.70;;;;;;;-0.36;100.00;97453.84;110246;1240;59726;-67
2023/11/19 02:56:37;;;;;;;9.50;6.30;;;;;;;-0.40;100.00;97457.90;110148;1241;59691;-67
2023/11/19 02:59:15;;;;;;;7.10;5.30;;;;;;;-0.44;100.00;97460.91;110223;1242;71380;-68
2023/11/19 03:01:50;;;;;;;7.00;4.80;;;;;;;-0.49;100.00;97462.93;110160;1245;68413;-68
2023/11/19 03:04:20;;;;;;;8.90;6.20;;;;;;;-0.54;100.00;97469.25;110127;1241;69149;-67
2023/11/19 03:06:53;;;;;;;7.70;5.90;;;;;;;-0.55;100.00;97457.98;110183;1243;59758;-68
2023/11/19 03:09:24;;;;;;;8.20;5.70;;;;;;;-0.58;100.00;97446.22;110078;1245;59750;-68
2023/11/19 03:11:56;;;;;;;12.10;7.80;;;;;;;-0.61;100.00;97448.88;110171;1242;71295;-68
2023/11/19 03:14:28;;;;;;;8.90;7.00;;;;;;;-0.59;100.00;97449.16;110192;1241;68434;-68
2023/11/19 03:17:00;;;;;;;14.90;7.90;;;;;;;-0.54;100.00;97449.55;110230;1241;69226;-68
2023/11/19 03:19:32;;;;;;;11.80;7.70;;;;;;;-0.50;100.00;97452.02;110164;1242;59697;-68
2023/11/19 03:22:04;;;;;;;9.70;7.20;;;;;;;-0.47;100.00;97448.17;110177;1242;59678;-68
2023/11/19 03:24:35;;;;;;;11.90;7.80;;;;;;;-0.47;100.00;97442.70;110130;1241;70579;-68
2023/11/19 03:27:06;;;;;;;10.20;7.30;;;;;;;-0.46;100.00;97437.35;110187;1241;69205;-68
2023/11/19 03:29:38;;;;;;;13.00;8.80;;;;;;;-0.46;100.00;97434.27;110194;1245;69324;-68
2023/11/19 03:32:12;;;;;;;12.10;8.30;;;;;;;-0.46;100.00;97431.53;110173;1246;59700;-68
2023/11/19 03:34:44;;;;;;;11.80;9.10;;;;;;;-0.47;100.00;97423.52;110193;1242;59667;-68
2023/11/19 03:37:17;;;;;;;10.70;7.00;;;;;;;-0.50;100.00;97415.22;110153;1243;70811;-68
2023/11/19 03:39:52;;;;;;;11.10;7.60;;;;;;;-0.53;100.00;97410.84;110195;1242;69478;-68
2023/11/19 03:42:24;;;;;;;12.80;8.60;;;;;;;-0.57;100.00;97412.48;110128;1244;69293;-68
2023/11/19 03:44:56;;;;;;;14.10;9.60;;;;;;;-0.57;100.00;97403.41;110166;1242;59675;-68
2023/11/19 03:47:30;;;;;;;11.70;8.60;;;;;;;-0.56;100.00;97412.64;110164;1242;59706;-68
2023/11/19 03:50:03;;;;;;;10.00;7.70;;;;;;;-0.58;100.00;97412.52;110210;1242;71417;-68
2023/11/19 03:52:35;;;;;;;10.60;7.30;;;;;;;-0.63;100.00;97407.69;110114;1244;68416;-68
2023/11/19 03:55:09;;;;;;;10.40;6.90;;;;;;;-0.67;100.00;97406.10;110201;1241;69679;-68
2023/11/19 03:57:40;;;;;;;11.30;7.20;;;;;;;-0.73;100.00;97411.74;110219;1242;59702;-68
2023/11/19 04:00:14;;;;;;;9.00;6.60;;;;;;;-0.78;100.00;97408.29;110187;1242;59685;-68
2023/11/19 04:02:46;;;;;;;11.50;8.00;;;;;;;-0.82;100.00;97408.23;110114;1241;71478;-68
2023/11/19 04:05:18;;;;;;;9.70;6.70;;;;;;;-0.84;100.00;97411.71;110110;1244;69353;-68
2023/11/19 04:07:52;;;;;;;8.50;6.60;;;;;;;-0.91;100.00;97409.83;110236;1240;68438;-68
2023/11/19 04:10:22;;;;;;;8.30;6.40;;;;;;;-0.98;100.00;97413.97;110232;1241;60073;-68
2023/11/19 04:12:53;;;;;;;9.00;6.80;;;;;;;-1.04;100.00;97417.55;110261;1242;59663;-68
2023/11/19 04:15:24;;;;;;;10.10;7.40;;;;;;;-1.09;100.00;97418.37;110244;1242;70656;-68
2023/11/19 04:17:54;;;;;;;7.50;5.50;;;;;;;-1.14;100.00;97419.34;110215;1240;69207;-68
2023/11/19 04:20:25;;;;;;;7.80;5.10;;;;;;;-1.17;100.00;97424.90;110240;1241;68714;-68
2023/11/19 04:22:57;;;;;;;8.40;5.90;;;;;;;-1.19;100.00;97430.27;110184;1242;59706;-68
2023/11/19 04:25:28;;;;;;;8.70;6.40;;;;;;;-1.16;100.00;97428.47;110296;1247;59714;-68
2023/11/19 04:27:58;;;;;;;10.50;6.00;;;;;;;-1.10;100.00;97425.05;110297;1243;70435;-68
2023/11/19 04:30:31;;;;;;;9.60;6.60;;;;;;;-1.04;100.00;97419.58;110278;1242;68497;-68
2023/11/19 04:33:03;;;;;;;9.30;6.90;;;;;;;-0.98;100.00;97416.71;110133;1244;68542;-67
2023/11/19 04:35:33;;;;;;;10.50;6.60;;;;;;;-0.94;100.00;97412.34;110243;1241;59726;-67
2023/11/19 04:38:04;;;;;;;10.60;6.90;;;;;;;-0.92;100.00;97411.75;110229;1242;59688;-68
2023/11/19 04:40:34;;;;;;;9.70;6.90;;;;;;;-0.91;100.00;97410.52;110155;1241;70431;-68
2023/11/19 04:43:05;;;;;;;8.70;6.60;;;;;;;-0.94;100.00;97409.27;110297;1242;68399;-67
2023/11/19 04:45:36;;;;;;;8.90;6.00;;;;;;;-0.99;100.00;97410.23;110202;1242;69635;-67
2023/11/19 04:48:09;;;;;;;9.50;5.80;;;;;;;-1.04;100.00;97411.19;110247;1240;59744;-68
2023/11/19 04:50:39;;;;;;;6.60;4.80;;;;;;;-1.07;100.00;97408.71;110270;1246;59759;-68
2023/11/19 04:53:10;;;;;;;6.80;5.30;;;;;;;-1.07;100.00;97412.30;110212;1243;70741;-68
2023/11/19 04:55:41;;;;;;;8.00;5.70;;;;;;;-1.04;100.00;97417.89;110250;1242;69094;-68
2023/11/19 04:58:11;;;;;;;6.60;4.60;;;;;;;-1.02;100.00;97417.99;110230;1240;68535;-68
2023/11/19 05:00:41;;;;;;;8.90;6.00;;;;;;;-0.98;100.00;97421.67;110296;1241;59806;-67
2023/11/19 05:03:11;;;;;;;8.00;5.90;;;;;;;-0.94;100.00;97424.64;110256;1242;59724;-68
2023/11/19 05:05:42;;;;;;;7.30;4.60;;;;;;;-0.89;100.00;97419.88;110146;1241;69643;-68
2023/11/19 05:08:13;;;;;;;9.40;6.70;;;;;;;-0.83;100.00;97415.11;110203;1242;69082;-68
2023/11/19 05:10:42;;;;;;;14.90;8.50;;;;;;;-0.79;100.00;97411.91;110206;1242;69287;-68
2023/11/19 05:13:15;;;;;;;14.70;10.10;;;;;;;-0.77;100.00;97410.13;110231;1242;60178;-68
2023/11/19 05:15:44;;;;;;;10.50;7.00;;;;;;;-0.76;100.00;97415.25;110242;1242;59676;-68
2023/11/19 05:18:14;;;;;;;11.70;7.60;;;;;;;-0.71;100.00;97421.96;110251;1242;71407;-68
2023/11/19 05:20:46;;;;;;;12.10;6.40;;;;;;;-0.65;100.00;97429.30;110250;1242;67528;-68
2023/11/19 05:23:17;;;;;;;10.30;6.60;;;;;;;-0.60;100.00;97435.85;110203;1242;68396;-68
2023/11/19 05:25:51;;;;;;;9.30;6.50;;;;;;;-0.55;100.00;97443.08;110220;1242;59712;-68
2023/11/19 05:28:24;;;;;;;9.80;6.80;;;;;;;-0.54;100.00;97438.25;110223;1242;60051;-68
2023/11/19 05:30:55;;;;;;;11.30;7.60;;;;;;;-0.50;100.00;97441.05;110175;1249;70033;-68
2023/11/19 05:33:26;;;;;;;8.70;7.00;;;;;;;-0.45;100.00;97435.94;110223;1242;68921;-68
2023/11/19 05:35:57;;;;;;;9.90;6.30;;;;;;;-0.40;100.00;97437.85;110191;1241;69225;-68
2023/11/19 05:38:28;;;;;;;8.40;6.30;;;;;;;-0.35;100.00;97438.23;110204;1242;59812;-68
2023/11/19 05:40:58;;;;;;;8.70;6.30;;;;;;;-0.31;100.00;97434.17;110210;1242;60055;-68
2023/11/19 05:43:29;;;;;;;10.60;7.70;;;;;;;-0.26;100.00;97434.52;110276;1241;71326;-68
2023/11/19 05:45:59;;;;;;;14.00;8.00;;;;;;;-0.26;100.00;97431.64;110288;1242;68458;-68
2023/11/19 05:48:29;;;;;;;9.90;6.90;;;;;;;-0.22;100.00;97435.45;110126;1241;68603;-68
2023/11/19 05:51:00;;;;;;;9.80;7.10;;;;;;;-0.18;100.00;97437.91;110273;1241;59726;-68
2023/11/19 05:53:29;;;;;;;10.60;8.40;;;;;;;-0.17;100.00;97440.45;109895;1245;59733;-68
2023/11/19 05:56:03;;;;;;;12.90;8.10;;;;;;;-0.15;100.00;97439.36;110122;1242;71248;-68
2023/11/19 05:58:33;;;;;;;10.40;7.90;;;;;;;-0.10;100.00;97433.89;109956;1241;68507;-68
2023/11/19 06:01:07;;;;;;;12.00;8.40;;;;;;;-0.11;100.00;97438.55;110192;1244;69086;-68
2023/11/19 06:03:37;;;;;;;11.20;8.70;;;;;;;-0.08;100.00;97444.63;110267;1242;59692;-68
2023/11/19 06:06:07;;;;;;;12.60;8.80;;;;;;;-0.11;100.00;97448.32;110275;1241;59759;-68
2023/11/19 06:08:37;;;;;;;10.20;7.10;;;;;;;-0.13;100.00;97452.67;110302;1242;70838;-68
2023/11/19 06:11:07;;;;;;;10.50;7.50;;;;;;;-0.10;100.00;97457.17;110160;1245;68304;-68
2023/11/19 06:13:37;;;;;;;10.60;7.60;;;;;;;-0.02;100.00;97458.16;110254;1244;69412;-68
2023/11/19 06:16:08;;;;;;;9.30;6.70;;;;;;;0.03;100.00;97456.48;110260;1245;59744;-68
2023/11/19 06:18:38;;;;;;;11.20;8.20;;;;;;;0.08;100.00;97453.23;110307;1244;60111;-68
2023/11/19 06:21:07;;;;;;;11.50;8.10;;;;;;;0.07;100.00;97448.13;110232;1245;71303;-68
2023/11/19 06:23:37;;;;;;;9.40;6.90;;;;;;;0.09;100.00;97446.88;110319;1243;69244;-70
2023/11/19 06:26:06;;;;;;;12.30;8.60;;;;;;;0.12;100.00;97450.36;110236;1241;68493;-68
2023/11/19 06:28:37;;;;;;;11.50;7.40;;;;;;;0.12;100.00;97455.70;110021;1245;59709;-68
2023/11/19 06:31:06;;;;;;;10.50;7.50;;;;;;;-0.01;100.00;97457.27;110190;1243;59663;-68
2023/11/19 06:33:35;;;;;;;10.20;7.30;;;;;;;-0.01;100.00;97461.89;110182;1243;70680;-67
2023/11/19 06:36:05;;;;;;;9.50;7.00;;;;;;;0.03;100.00;97468.28;110185;1245;69217;-67
2023/11/19 06:38:35;;;;;;;10.00;7.40;;;;;;;0.04;100.00;97467.57;110248;1242;69070;-67
2023/11/19 06:41:09;;;;;;;14.50;10.40;;;;;;;0.08;100.00;97467.63;110196;1241;59736;-68
2023/11/19 06:43:38;;;;;;;9.80;7.80;;;;;;;0.13;100.00;97470.91;110142;1241;59686;-67
2023/11/19 06:46:20;;;;;;;9.70;7.30;;;;;;;0.20;100.00;97468.12;110116;1241;71845;-68
2023/11/19 06:48:49;;;;;;;15.50;12.00;;;;;;;0.28;100.00;97463.60;110177;1244;69882;-67
2023/11/19 06:51:19;;;;;;;12.10;8.50;;;;;;;0.33;100.00;97461.72;110119;1244;68503;-67
2023/11/19 06:53:48;;;;;;;16.00;13.00;;;;;;;0.39;100.00;97462.39;110140;1241;59667;-67
2023/11/19 06:56:21;;;;;;;9.70;7.40;;;;;;;0.37;100.00;97465.70;110191;1244;59673;-67
2023/11/19 06:58:51;;;;;;;11.50;7.60;;;;;;;0.40;100.00;97466.64;110225;1241;71843;-67
2023/11/19 07:01:20;;;;;;;9.70;7.30;;;;;;;0.45;100.00;97466.83;110221;1241;68368;-66
2023/11/19 07:03:51;;;;;;;9.30;6.80;;;;;;;0.53;100.00;97468.82;110278;1243;70014;-67
2023/11/19 07:06:23;;;;;;;8.20;6.00;;;;;;;0.58;100.00;97467.29;110249;1242;59744;-66
2023/11/19 07:09:09;;;;;;;9.40;7.00;;;;;;;0.59;100.00;97472.04;110362;1242;59704;-66
2023/11/19 07:11:40;;;;;;;8.20;6.60;;;;;;;0.66;100.00;97474.23;110186;1243;71951;-67
2023/11/19 07:14:10;;;;;;;9.30;6.10;;;;;;;0.69;100.00;97473.27;110199;1242;69808;-67
2023/11/19 07:16:39;;;;;;;7.90;6.20;;;;;;;0.75;100.00;97476.16;110159;1245;69415;-67
2023/11/19 07:19:09;;;;;;;8.40;6.70;;;;;;;0.74;100.00;97476.36;110223;1241;59692;-67
2023/11/19 07:21:43;;;;;;;7.70;5.90;;;;;;;0.74;100.00;97475.13;110249;1242;59704;-67
2023/11/19 07:24:13;;;;;;;8.50;6.30;;;;;;;0.71;100.00;97477.83;110210;1243;70432;-67
2023/11/19 07:26:47;;;;;;;10.20;8.00;;;;;;;0.79;100.00;97478.95;110209;1240;69108;-67
2023/11/19 07:29:16;;;;;;;9.70;7.40;;;;;;;0.84;100.00;97481.20;110186;1240;69963;-67
2023/11/19 07:31:57;;;;;;;8.10;6.70;;;;;;;0.84;100.00;97479.14;110169;1245;59690;-67
2023/11/19 07:34:26;;;;;;;9.80;7.40;;;;;;;0.82;100.00;97477.48;110232;1242;59684;-67
2023/11/19 07:36:59;;;;;;;9.80;7.10;;;;;;;0.82;100.00;97472.85;110338;1241;71216;-68
2023/11/19 07:39:30;;;;;;;9.00;6.80;;;;;;;0.84;100.00;97463.33;110206;1240;68718;-68
2023/11/19 07:42:00;;;;;;;8.80;6.60;;;;;;;0.87;100.00;97457.23;110228;1242;69102;-67
2023/11/19 07:44:28;;;;;;;7.80;5.90;;;;;;;0.92;100.00;97451.77;110147;1244;59750;-67
2023/11/19 07:46:58;;;;;;;9.00;6.00;;;;;;;0.91;100.00;97451.08;110253;1242;59656;-67
2023/11/19 07:49:27;;;;;;;7.40;5.70;;;;;;;0.97;100.00;97449.17;110271;1242;72008;-67
2023/11/19 07:51:56;;;;;;;9.30;6.40;;;;;;;0.99;100.00;97447.21;110243;1241;69238;-68
2023/11/19 07:54:25;;;;;;;9.10;6.80;;;;;;;1.04;100.00;97441.23;110219;1242;69860;-68
2023/11/19 07:56:55;;;;;;;10.10;7.10;;;;;;;1.07;100.00;97445.41;110206;1241;59721;-68
2023/11/19 07:59:24;;;;;;;10.00;7.60;;;;;;;1.06;100.00;97444.92;110227;1241;59718;-67
2023/11/19 08:01:53;;;;;;;7.50;6.50;;;;;;;1.06;100.00;97444.41;110116;1244;71236;-68
2023/11/19 08:04:22;;;;;;;9.40;6.90;;;;;;;1.05;100.00;97446.15;110223;1240;69040;-67
2023/11/19 08:06:51;;;;;;;7.20;6.10;;;;;;;1.10;100.00;97447.89;110248;1241;68689;-67
2023/11/19 08:09:24;;;;;;;10.20;7.70;;;;;;;1.11;100.00;97455.58;110273;1241;59723;-68
2023/11/19 08:11:56;;;;;;;9.00;6.80;;;;;;;1.09;100.00;97462.34;110000;1244;59726;-68
2023/11/19 08:14:25;;;;;;;7.30;5.60;;;;;;;1.08;100.00;97466.48;110275;1242;71460;-68
2023/11/19 08:16:54;;;;;;;8.20;6.10;;;;;;;1.12;100.00;97473.73;110211;1242;68347;-67
2023/11/19 08:19:23;;;;;;;8.80;7.00;;;;;;;1.15;100.00;97472.42;110210;1242;69373;-67
2023/11/19 08:21:52;;;;;;;9.20;6.90;;;;;;;1.19;100.00;97468.66;110201;1241;59708;-67
2023/11/19 08:24:21;;;;;;;9.50;7.00;;;;;;;1.26;100.00;97471.85;110214;1242;59678;-67
2023/11/19 08:26:50;;;;;;;7.80;6.70;;;;;;;1.33;100.00;97470.93;110184;1241;71854;-67
2023/11/19 08:29:22;;;;;;;9.00;7.20;;;;;;;1.38;100.00;97462.34;110316;1242;67798;-67
2023/11/19 08:31:51;;;;;;;11.50;8.10;;;;;;;1.38;100.00;97462.20;110228;1240;69230;-67
2023/11/19 08:34:20;;;;;;;9.20;6.60;;;;;;;1.35;100.00;97459.73;110311;1242;59682;-67
2023/11/19 08:36:53;;;;;;;7.90;7.10;;;;;;;1.37;100.00;97458.45;110209;1240;59706;-68
2023/11/19 08:39:22;;;;;;;8.20;6.40;;;;;;;1.40;100.00;97464.00;109941;1245;72339;-67
2023/11/19 08:41:51;;;;;;;9.50;7.70;;;;;;;1.48;100.00;97466.27;110209;1241;69230;-67
2023/11/19 08:44:20;;;;;;;9.30;6.80;;;;;;;1.60;100.00;97471.73;110210;1242;69866;-67
2023/11/19 08:46:49;;;;;;;9.10;7.10;;;;;;;1.62;100.00;97467.35;110316;1242;59715;-69
2023/11/19 08:49:19;;;;;;;8.90;6.70;;;;;;;1.67;100.00;97459.44;110273;1242;59627;-67
2023/11/19 08:51:48;;;;;;;8.70;6.60;;;;;;;1.73;100.00;97461.79;110280;1242;71501;-67
2023/11/19 08:54:17;;;;;;;8.50;6.40;;;;;;;1.82;100.00;97457.50;110256;1241;69136;-67
2023/11/19 08:56:47;;;;;;;10.00;8.00;;;;;;;1.91;100.00;97460.44;110310;1242;69878;-67
2023/11/19 08:59:15;;;;;;;9.00;7.40;;;;;;;1.92;100.00;97460.71;110330;1241;59668;-67
2023/11/19 09:01:46;;;;;;;10.10;8.40;;;;;;;1.99;100.00;97463.71;110245;1241;59721;-67
2023/11/19 09:04:15;;;;;;;8.80;6.80;;;;;;;2.02;100.00;97455.53;110216;1240;71322;-67
2023/11/19 09:06:45;;;;;;;;;;;;;;;1.93;100.00;97449.52;110253;1242;69853;-67
2023/11/19 09:09:15;;;;;;;11.30;7.80;;;;;;;1.92;100.00;97444.94;110236;1242;70107;-67
2023/11/19 09:11:44;;;;;;;9.10;8.00;;;;;;;1.95;100.00;97448.73;110351;1242;59756;-67
2023/11/19 09:14:13;;;;;;;8.90;6.60;;;;;;;2.02;100.00;97445.59;110322;1242;59617;-67
2023/11/19 09:16:42;;;;;;;9.90;7.00;;;;;;;2.13;100.00;97447.92;110363;1241;71983;-67
2023/11/19 09:19:11;;;;;;;9.00;6.50;;;;;;;2.19;100.00;97456.09;110269;1241;69092;-67
2023/11/19 09:21:40;;;;;;;10.30;7.10;;;;;;;2.27;100.00;97456.48;110217;1242;68817;-67
2023/11/19 09:24:09;;;;;;;9.20;6.60;;;;;;;2.37;100.00;97455.41;110225;1243;59718;-67
2023/11/19 09:26:41;;;;;;;8.70;6.40;;;;;;;2.39;100.00;97454.64;110115;1241;59725;-67
2023/11/19 09:29:11;;;;;;;9.00;7.10;;;;;;;2.28;100.00;97449.71;110238;1241;71982;-69
2023/11/19 09:31:40;;;;;;;9.70;8.40;;;;;;;2.39;100.00;97437.59;110214;1242;69825;-68
2023/11/19 09:34:10;;;;;;;10.00;7.60;;;;;;;2.37;100.00;97430.99;110249;1242;69284;-67
2023/11/19 09:36:43;;;;;;;8.40;6.60;;;;;;;2.28;100.00;97430.31;110233;1242;60056;-66
2023/11/19 09:39:17;;;;;;;10.10;7.50;;;;;;;2.39;100.00;97425.38;110260;1242;59711;-66
2023/11/19 09:41:47;;;;;;;8.60;6.40;;;;;;;2.68;100.00;97426.64;110262;1241;71179;-69
2023/11/19 09:44:18;;;;;;;8.10;6.40;;;;;;;2.82;100.00;97425.55;110212;1242;69792;-67
2023/11/19 09:46:48;;;;;;;7.60;6.30;;;;;;;2.99;100.00;97433.58;110098;1240;69784;-67
2023/11/19 09:49:23;;;;;;;8.60;6.60;;;;;;;3.25;100.00;97437.66;110207;1241;59740;-67
2023/11/19 09:51:55;;;;;;;9.00;6.40;;;;;;;3.46;100.00;97433.28;110109;1243;59685;-67
2023/11/19 09:54:24;;;;;;;8.20;6.60;;;;;;;3.61;100.00;97434.36;110200;1242;71483;-67
2023/11/19 09:57:02;;;;;;;8.90;6.90;;;;;;;3.60;100.00;97436.31;110329;1240;69238;-68
2023/11/19 09:59:33;;;;;;;8.40;6.60;;;;;;;3.67;100.00;97428.23;110344;1241;68379;-67
2023/11/19 10:02:03;;;;;;;9.00;7.40;;;;;;;3.55;97.51;97401.91;110238;1242;59714;-67
2023/11/19 10:04:36;;;;;;;9.50;6.90;;;;;;;3.62;99.95;97405.55;110285;1240;59731;-67
2023/11/19 10:07:05;;;;;;;8.10;6.60;;;;;;;3.66;99.46;97404.31;110240;1249;71585;-67
2023/11/19 10:09:34;;;;;;;8.60;6.90;;;;;;;3.72;99.27;97398.88;110361;1242;69241;-67
2023/11/19 10:12:03;;;;;;;8.50;7.10;;;;;;;3.77;100.00;97387.97;110361;1242;69763;-68
2023/11/19 10:14:37;;;;;;;8.70;7.50;;;;;;;3.81;100.00;97390.52;110203;1242;59740;-67
2023/11/19 10:17:08;;;;;;;8.40;7.10;;;;;;;3.63;97.14;97389.79;110307;1241;59752;-67
2023/11/19 10:19:41;;;;;;;9.10;7.30;;;;;;;3.65;97.88;97389.71;110290;1242;70370;-67
2023/11/19 10:22:11;;;;;;;10.20;7.90;;;;;;;3.63;99.88;97389.30;110334;1242;69814;-68
2023/11/19 10:24:40;;;;;;;10.30;7.90;;;;;;;3.50;99.83;97389.69;110109;1243;68315;-67
2023/11/19 10:27:17;;;;;;;9.50;7.40;;;;;;;3.46;97.84;97387.80;110097;1244;59760;-68
2023/11/19 10:29:47;;;;;;;9.50;8.40;;;;;;;3.46;99.93;97390.60;110128;1244;60077;-67
2023/11/19 10:32:16;;;;;;;9.00;7.00;;;;;;;3.46;100.00;97389.37;110124;1241;71385;-68
2023/11/19 10:35:07;;;;;;;9.40;8.00;;;;;;;3.49;99.74;97393.35;110145;1241;69022;-67
2023/11/19 10:37:37;;;;;;;8.70;7.70;;;;;;;3.55;99.97;97396.05;110126;1244;69922;-68
2023/11/19 10:40:10;;;;;;;8.20;7.30;;;;;;;3.61;100.00;97402.17;110243;1241;60057;-67
2023/11/19 10:42:41;;;;;;;7.90;6.50;;;;;;;3.55;99.54;97384.48;110205;1241;59737;-68
2023/11/19 10:45:23;;;;;;;9.10;7.50;;;;;;;3.56;99.94;97393.06;110216;1242;70546;-68
2023/11/19 10:47:55;;;;;;;9.10;7.10;;;;;;;3.60;100.00;97405.11;110209;1242;71433;-67
2023/11/19 10:50:25;;;;;;;11.20;8.60;;;;;;;3.59;100.00;97406.88;110229;1241;68590;-67
2023/11/19 10:52:59;;;;;;;8.60;7.00;;;;;;;3.60;100.00;97395.46;110334;1242;59788;-68
2023/11/19 10:55:34;;;;;;;9.80;8.10;;;;;;;3.50;100.00;97392.96;110247;1241;59725;-69
2023/11/19 10:58:05;;;;;;;9.80;7.70;;;;;;;3.48;100.00;97398.91;109706;1243;705553;-68
2023/11/19 11:00:47;;;;;;;10.20;7.60;;;;;;;3.48;100.00;97396.16;110116;1241;69420;-68
2023/11/19 11:03:19;;;;;;;9.00;6.90;;;;;;;3.46;100.00;97400.21;110171;1241;69150;-69
2023/11/19 11:05:50;;;;;;;8.60;6.70;;;;;;;3.41;100.00;97397.16;110214;1241;59700;-68
2023/11/19 11:08:20;;;;;;;7.00;5.80;;;;;;;3.54;100.00;97404.48;110185;1241;59733;-69
2023/11/19 11:10:54;;;;;;;8.40;6.40;;;;;;;3.53;99.71;97408.16;110179;1244;71380;-69
2023/11/19 11:13:29;;;;;;;7.70;6.90;;;;;;;3.70;99.74;97403.13;110180;1244;69286;-68
2023/11/19 11:15:58;;;;;;;9.00;7.50;;;;;;;3.70;99.69;97393.62;110145;1241;69259;-68
2023/11/19 11:18:28;;;;;;;10.10;7.50;;;;;;;3.76;99.98;97388.00;110162;1243;59673;-69
2023/11/19 11:21:03;;;;;;;9.20;7.20;;;;;;;3.77;99.71;97381.56;110132;1244;60089;-69
2023/11/19 11:23:32;;;;;;;9.50;8.40;;;;;;;3.63;99.39;97382.42;110141;1248;71280;-69
2023/11/19 11:26:23;;;;;;;9.10;7.30;;;;;;;3.73;100.00;97385.21;110167;1243;68700;-69
2023/11/19 11:29:01;;;;;;;9.10;7.30;;;;;;;3.73;98.51;97397.96;110137;1241;69244;-68
2023/11/19 11:32:03;;;;;;;7.90;6.50;;;;;;;3.82;99.46;97394.96;110102;1241;59702;-69
2023/11/19 11:34:42;;;;;;;8.80;7.10;;;;;;;3.80;99.11;97398.69;110173;1241;59699;-69
2023/11/19 11:37:30;;;;;;;9.20;7.20;;;;;;;3.71;97.08;97400.98;110296;1241;71362;-69
2023/11/19 11:40:05;;;;;;;8.50;6.70;;;;;;;3.80;99.45;97397.80;110192;1242;69189;-69
2023/11/19 11:42:34;;;;;;;8.80;7.10;;;;;;;3.83;95.45;97395.62;110190;1241;69355;-69